createdAt,value
2023-03-12T00:02:21.539Z,6.97
2023-03-12T00:04:48.226Z,5.00
2023-03-12T00:07:14.630Z,5.80
2023-03-12T00:09:40.972Z,4.85
2023-03-12T00:12:07.853Z,7.03
2023-03-12T00:14:34.568Z,6.82
2023-03-12T00:17:01.394Z,7.40
2023-03-12T00:19:28.030Z,10.02
2023-03-12T00:21:54.657Z,9.65
2023-03-12T00:24:21.255Z,9.35
2023-03-12T00:26:47.869Z,11.63
2023-03-12T00:29:14.484Z,10.82
2023-03-12T00:31:41.252Z,12.18
2023-03-12T00:34:07.823Z,9.40
2023-03-12T00:36:34.553Z,9.35
2023-03-12T00:39:01.676Z,9.02
2023-03-12T00:41:28.559Z,9.20
2023-03-12T00:43:56.176Z,13.07
2023-03-12T00:46:22.755Z,12.95
2023-03-12T00:48:49.531Z,9.48
2023-03-12T00:51:15.998Z,12.75
2023-03-12T00:53:42.372Z,12.05
2023-03-12T00:56:08.948Z,13.05
2023-03-12T00:58:36.490Z,8.05
2023-03-12T01:01:03.109Z,9.43
2023-03-12T01:03:29.990Z,7.05
2023-03-12T01:05:56.533Z,9.00
2023-03-12T01:08:23.500Z,7.55
2023-03-12T01:10:50.106Z,13.45
2023-03-12T01:13:17.601Z,10.43
2023-03-12T01:15:44.223Z,8.70
2023-03-12T01:18:11.046Z,11.73
2023-03-12T01:20:37.690Z,6.72
2023-03-12T01:23:04.270Z,6.25
2023-03-12T01:25:30.645Z,7.97
2023-03-12T01:27:56.988Z,6.32
2023-03-12T01:30:24.003Z,5.97
2023-03-12T01:32:51.529Z,9.52
2023-03-12T01:35:18.427Z,10.00
2023-03-12T01:37:45.038Z,13.10
2023-03-12T01:40:17.742Z,10.95
2023-03-12T01:42:51.364Z,12.65
2023-03-12T01:47:44.173Z,9.85
2023-03-12T01:50:10.940Z,13.52
2023-03-12T01:52:38.093Z,7.90
2023-03-12T01:55:09.559Z,12.40
2023-03-12T01:57:42.163Z,9.35
2023-03-12T02:00:12.037Z,8.82
2023-03-12T02:02:43.666Z,9.20
2023-03-12T02:05:18.216Z,8.15
2023-03-12T02:07:45.123Z,11.63
2023-03-12T02:10:11.915Z,7.95
2023-03-12T02:12:38.618Z,8.57
2023-03-12T02:15:05.670Z,6.55
2023-03-12T02:17:34.042Z,6.65
2023-03-12T02:20:19.762Z,8.65
2023-03-12T02:22:51.647Z,4.38
2023-03-12T02:25:31.488Z,6.72
2023-03-12T02:27:59.737Z,8.23
2023-03-12T02:30:27.991Z,5.72
2023-03-12T02:32:54.850Z,6.22
2023-03-12T02:35:23.258Z,5.75
2023-03-12T02:37:51.127Z,13.18
2023-03-12T02:40:23.116Z,6.07
2023-03-12T02:42:49.732Z,6.85
2023-03-12T02:45:16.313Z,7.95
2023-03-12T02:47:42.730Z,6.90
2023-03-12T02:50:09.678Z,10.60
2023-03-12T02:52:37.887Z,7.03
2023-03-12T02:55:05.293Z,5.88
2023-03-12T02:57:32.110Z,14.18
2023-03-12T02:59:58.524Z,5.22
2023-03-12T03:02:25.657Z,9.68
2023-03-12T03:04:52.049Z,6.68
2023-03-12T03:07:18.614Z,4.93
2023-03-12T03:09:45.383Z,5.45
2023-03-12T03:12:11.964Z,8.77
2023-03-12T03:14:38.950Z,8.00
2023-03-12T03:17:05.701Z,8.23
2023-03-12T03:19:32.577Z,8.32
2023-03-12T03:21:59.154Z,8.13
2023-03-12T03:24:25.865Z,4.93
2023-03-12T03:26:52.312Z,4.88
2023-03-12T03:29:18.898Z,8.05
2023-03-12T03:31:45.781Z,5.72
2023-03-12T03:34:13.014Z,6.70
2023-03-12T03:36:39.575Z,4.60
2023-03-12T03:39:11.206Z,6.20
2023-03-12T03:41:37.641Z,8.23
2023-03-12T03:44:05.350Z,4.28
2023-03-12T03:46:32.895Z,5.18
2023-03-12T03:49:03.780Z,4.57
2023-03-12T03:51:32.503Z,8.10
2023-03-12T03:54:04.445Z,3.55
2023-03-12T03:56:31.227Z,8.23
2023-03-12T03:59:01.737Z,6.63
2023-03-12T04:01:28.738Z,7.70
2023-03-12T04:03:56.090Z,10.63
2023-03-12T04:06:23.225Z,6.35
2023-03-12T04:08:52.457Z,5.22
2023-03-12T04:11:23.202Z,6.10
2023-03-12T04:13:50.057Z,7.65
2023-03-12T04:16:19.116Z,6.30
2023-03-12T04:18:47.170Z,3.13
2023-03-12T04:21:15.337Z,12.13
2023-03-12T04:23:43.094Z,7.82
2023-03-12T04:26:11.795Z,3.72
2023-03-12T04:28:39.026Z,3.58
2023-03-12T04:31:07.714Z,8.32
2023-03-12T04:33:46.758Z,5.63
2023-03-12T04:36:14.729Z,5.55
2023-03-12T04:38:43.630Z,6.28
2023-03-12T04:41:14.413Z,4.35
2023-03-12T04:43:51.853Z,7.68
2023-03-12T04:46:19.246Z,5.60
2023-03-12T04:48:45.842Z,8.00
2023-03-12T04:51:13.413Z,8.45
2023-03-12T04:53:40.799Z,10.07
2023-03-12T04:56:09.793Z,9.55
2023-03-12T04:58:37.567Z,4.75
2023-03-12T05:01:05.800Z,6.32
2023-03-12T05:03:35.527Z,8.48
2023-03-12T05:06:02.115Z,8.18
2023-03-12T05:08:28.477Z,8.18
2023-03-12T05:10:55.077Z,8.52
2023-03-12T05:13:23.815Z,8.73
2023-03-12T05:15:54.487Z,8.35
2023-03-12T05:18:21.628Z,10.65
2023-03-12T05:20:58.627Z,12.57
2023-03-12T05:23:25.776Z,11.75
2023-03-12T05:25:54.013Z,11.93
2023-03-12T05:28:21.466Z,8.55
2023-03-12T05:30:47.924Z,11.40
2023-03-12T05:33:14.325Z,11.85
2023-03-12T05:35:40.938Z,11.05
2023-03-12T05:38:07.470Z,9.48
2023-03-12T05:40:34.038Z,10.10
2023-03-12T05:43:01.298Z,12.00
2023-03-12T05:45:29.013Z,8.80
2023-03-12T05:47:58.846Z,9.48
2023-03-12T05:50:27.919Z,8.50
2023-03-12T05:52:54.597Z,11.23
2023-03-12T05:55:21.294Z,8.27
2023-03-12T05:57:47.917Z,5.28
2023-03-12T06:00:15.087Z,7.47
2023-03-12T06:02:47.300Z,10.13
2023-03-12T06:05:14.411Z,10.98
2023-03-12T06:07:41.400Z,9.35
2023-03-12T06:10:08.233Z,5.93
2023-03-12T06:12:34.778Z,8.27
2023-03-12T06:15:01.820Z,7.78
2023-03-12T06:17:29.324Z,6.93
2023-03-12T06:19:55.995Z,11.65
2023-03-12T06:22:22.493Z,8.32
2023-03-12T06:24:49.816Z,11.35
2023-03-12T06:27:17.868Z,9.93
2023-03-12T06:29:46.469Z,8.38
2023-03-12T06:32:13.670Z,8.15
2023-03-12T06:34:40.204Z,12.20
2023-03-12T06:37:06.661Z,12.32
2023-03-12T06:39:33.230Z,10.52
2023-03-12T06:41:59.620Z,8.48
2023-03-12T06:44:26.170Z,9.98
2023-03-12T06:46:52.553Z,11.60
2023-03-12T06:49:19.189Z,12.32
2023-03-12T06:51:45.529Z,10.45
2023-03-12T06:54:12.127Z,11.68
2023-03-12T06:56:39.992Z,13.30
2023-03-12T06:59:06.656Z,12.02
2023-03-12T07:01:34.878Z,12.50
2023-03-12T07:04:01.246Z,12.93
2023-03-12T07:06:27.639Z,11.85
2023-03-12T07:08:54.409Z,13.75
2023-03-12T07:11:20.917Z,13.85
2023-03-12T07:13:47.722Z,14.68
2023-03-12T07:16:14.353Z,9.52
2023-03-12T07:18:41.120Z,13.55
2023-03-12T07:21:07.664Z,15.20
2023-03-12T07:23:34.449Z,16.00
2023-03-12T07:26:00.842Z,12.93
2023-03-12T07:28:27.838Z,10.23
2023-03-12T07:30:59.444Z,12.57
2023-03-12T07:33:25.934Z,14.82
2023-03-12T07:35:52.524Z,11.63
2023-03-12T07:38:19.636Z,14.63
2023-03-12T07:40:50.322Z,14.38
2023-03-12T07:43:17.732Z,19.30
2023-03-12T07:45:47.065Z,15.85
2023-03-12T07:48:13.552Z,16.23
2023-03-12T07:50:39.912Z,16.13
2023-03-12T07:53:07.111Z,14.80
2023-03-12T07:55:34.795Z,15.00
2023-03-12T07:58:01.330Z,18.58
2023-03-12T08:00:29.016Z,16.83
2023-03-12T08:02:55.815Z,17.95
2023-03-12T08:05:24.796Z,15.80
2023-03-12T08:07:52.604Z,16.92
2023-03-12T08:10:19.985Z,16.60
2023-03-12T08:12:46.719Z,16.63
2023-03-12T08:15:13.162Z,18.38
2023-03-12T08:17:42.626Z,19.40
2023-03-12T08:20:10.474Z,17.52
2023-03-12T08:22:37.746Z,19.13
2023-03-12T08:25:05.157Z,20.15
2023-03-12T08:27:31.975Z,18.77
2023-03-12T08:29:58.404Z,20.05
2023-03-12T08:32:25.083Z,19.45
2023-03-12T08:34:52.758Z,20.10
2023-03-12T08:37:20.401Z,20.15
2023-03-12T08:39:47.389Z,20.05
2023-03-12T08:42:14.071Z,19.63
2023-03-12T08:44:40.469Z,22.77
2023-03-12T08:47:06.905Z,20.05
2023-03-12T08:49:33.690Z,22.70
2023-03-12T08:52:00.762Z,21.02
2023-03-12T08:54:27.483Z,21.85
2023-03-12T08:56:53.929Z,17.65
2023-03-12T08:59:20.732Z,18.17
2023-03-12T09:01:47.412Z,19.55
2023-03-12T09:04:14.065Z,22.92
2023-03-12T09:06:41.134Z,24.17
2023-03-12T09:09:09.234Z,24.33
2023-03-12T09:11:39.898Z,22.77
2023-03-12T09:16:53.408Z,25.02
2023-03-12T09:19:20.759Z,24.20
2023-03-12T09:21:47.148Z,24.02
2023-03-12T09:24:13.797Z,24.45
2023-03-12T09:26:40.334Z,25.52
2023-03-12T09:29:06.893Z,22.95
2023-03-12T09:31:34.545Z,26.33
2023-03-12T09:34:01.150Z,24.98
2023-03-12T09:36:27.628Z,28.85
2023-03-12T09:38:54.574Z,27.42
2023-03-12T09:41:23.334Z,28.52
2023-03-12T09:43:53.114Z,22.65
2023-03-12T09:46:27.331Z,28.30
2023-03-12T09:48:56.812Z,28.15
2023-03-12T09:51:27.164Z,24.92
2023-03-12T09:53:55.710Z,30.83
2023-03-12T09:56:22.789Z,25.90
2023-03-12T09:58:50.765Z,26.77
2023-03-12T10:01:38.790Z,27.58
2023-03-12T10:04:15.820Z,27.80
2023-03-12T10:07:01.691Z,27.95
2023-03-12T10:09:37.907Z,27.67
2023-03-12T10:12:27.545Z,32.60
2023-03-12T10:15:03.630Z,27.23
2023-03-12T10:17:30.063Z,31.45
2023-03-12T10:19:58.217Z,26.52
2023-03-12T10:22:43.479Z,26.13
2023-03-12T10:25:18.194Z,28.65
2023-03-12T10:27:44.960Z,28.52
2023-03-12T10:30:24.338Z,25.85
2023-03-12T10:32:53.557Z,27.52
2023-03-12T10:35:22.145Z,25.20
2023-03-12T10:37:53.910Z,25.05
2023-03-12T10:40:24.147Z,26.60
2023-03-12T10:42:51.111Z,25.67
2023-03-12T10:45:24.355Z,24.80
2023-03-12T10:47:53.471Z,25.70
2023-03-12T10:50:27.669Z,22.38
2023-03-12T10:53:12.499Z,22.90
2023-03-12T10:55:39.270Z,23.38
2023-03-12T10:58:05.822Z,23.25
2023-03-12T11:00:32.573Z,23.83
2023-03-12T11:03:06.549Z,23.83
2023-03-12T11:05:46.000Z,25.10
2023-03-12T11:08:20.426Z,26.85
2023-03-12T11:10:47.669Z,27.95
2023-03-12T11:13:32.995Z,26.35
2023-03-12T11:16:01.354Z,28.75
2023-03-12T11:18:29.701Z,31.00
2023-03-12T11:20:58.209Z,27.33
2023-03-12T11:23:28.912Z,26.42
2023-03-12T11:26:00.804Z,28.75
2023-03-12T11:28:41.527Z,27.17
2023-03-12T11:31:19.137Z,27.05
2023-03-12T11:33:45.690Z,27.92
2023-03-12T11:36:18.691Z,28.25
2023-03-12T11:38:50.918Z,27.38
2023-03-12T11:41:32.896Z,31.40
2023-03-12T11:44:21.142Z,31.02
2023-03-12T11:47:10.704Z,29.90
2023-03-12T11:49:37.192Z,26.45
2023-03-12T11:52:08.921Z,32.22
2023-03-12T11:54:47.849Z,28.30
2023-03-12T11:57:28.841Z,29.70
2023-03-12T12:00:13.934Z,27.38
2023-03-12T12:02:44.682Z,30.92
2023-03-12T12:05:26.438Z,30.85
2023-03-12T12:08:00.978Z,29.88
2023-03-12T12:10:46.233Z,30.48
2023-03-12T12:13:14.699Z,28.40
2023-03-12T12:15:58.278Z,30.23
2023-03-12T12:18:32.487Z,29.23
2023-03-12T12:20:58.839Z,32.35
2023-03-12T12:23:25.186Z,25.60
2023-03-12T12:26:03.001Z,28.50
2023-03-12T12:28:54.262Z,29.67
2023-03-12T12:31:25.450Z,29.25
2023-03-12T12:34:04.150Z,27.50
2023-03-12T12:36:32.657Z,29.23
2023-03-12T12:39:01.536Z,27.27
2023-03-12T12:41:30.358Z,23.50
2023-03-12T12:44:02.658Z,28.67
2023-03-12T12:46:35.092Z,19.75
2023-03-12T12:49:03.562Z,22.55
2023-03-12T12:51:31.646Z,24.17
2023-03-12T12:54:04.542Z,25.67
2023-03-12T12:56:30.986Z,25.88
2023-03-12T12:59:13.562Z,24.17
2023-03-12T13:01:40.441Z,19.30
2023-03-12T13:04:12.643Z,22.27
2023-03-12T13:06:58.212Z,19.92
2023-03-12T13:09:45.058Z,26.42
2023-03-12T13:12:30.920Z,19.58
2023-03-12T13:14:57.995Z,20.67
2023-03-12T13:17:27.901Z,20.13
2023-03-12T13:20:01.698Z,19.38
2023-03-12T13:22:54.678Z,21.13
2023-03-12T13:25:21.130Z,18.90
2023-03-12T13:27:47.540Z,18.58
2023-03-12T13:30:32.370Z,20.27
2023-03-12T13:32:58.901Z,18.40
2023-03-12T13:35:25.304Z,20.08
2023-03-12T13:37:51.835Z,23.75
2023-03-12T13:40:30.634Z,19.80
2023-03-12T13:43:06.209Z,23.30
2023-03-12T13:45:32.892Z,19.30
2023-03-12T13:48:01.241Z,21.80
2023-03-12T13:50:28.195Z,25.02
2023-03-12T13:52:57.804Z,20.60
2023-03-12T13:55:27.292Z,21.05
2023-03-12T13:57:55.678Z,19.40
2023-03-12T14:00:27.318Z,19.83
2023-03-12T14:02:57.631Z,21.85
2023-03-12T14:05:25.063Z,25.20
2023-03-12T14:08:24.267Z,23.23
2023-03-12T14:10:51.190Z,25.42
2023-03-12T14:13:33.503Z,21.42
2023-03-12T14:16:22.665Z,21.38
2023-03-12T14:18:49.439Z,19.90
2023-03-12T14:21:17.008Z,17.77
2023-03-12T14:23:50.783Z,19.52
2023-03-12T14:26:24.491Z,21.48
2023-03-12T14:28:55.931Z,26.45
2023-03-12T14:31:23.825Z,24.05
2023-03-12T14:33:57.260Z,22.75
2023-03-12T14:36:26.466Z,20.17
2023-03-12T14:39:00.331Z,23.52
2023-03-12T14:41:35.637Z,20.85
2023-03-12T14:44:17.763Z,24.70
2023-03-12T14:47:10.406Z,20.55
2023-03-12T14:49:42.055Z,25.23
2023-03-12T14:52:11.103Z,21.33
2023-03-12T14:54:39.601Z,20.33
2023-03-12T14:57:06.869Z,19.80
2023-03-12T14:59:38.075Z,21.95
2023-03-12T15:02:11.383Z,23.30
2023-03-12T15:04:39.116Z,26.38
2023-03-12T15:07:08.960Z,24.15
2023-03-12T15:09:36.528Z,22.25
2023-03-12T15:12:05.665Z,20.27
2023-03-12T15:14:39.908Z,24.55
2023-03-12T15:17:07.890Z,22.27
2023-03-12T15:19:40.487Z,20.02
2023-03-12T15:22:10.147Z,18.77
2023-03-12T15:24:40.898Z,19.48
2023-03-12T15:27:25.757Z,23.27
2023-03-12T15:29:52.763Z,23.48
2023-03-12T15:32:22.051Z,22.27
2023-03-12T15:34:48.949Z,22.23
2023-03-12T15:37:24.723Z,21.90
2023-03-12T15:39:52.749Z,22.35
2023-03-12T15:42:21.634Z,24.35
2023-03-12T15:44:48.990Z,20.70
2023-03-12T15:47:17.966Z,22.23
2023-03-12T15:49:48.410Z,25.45
2023-03-12T15:52:35.011Z,24.77
2023-03-12T15:55:07.446Z,28.38
2023-03-12T15:57:35.040Z,24.38
2023-03-12T16:00:14.654Z,21.58
2023-03-12T16:02:49.775Z,21.45
2023-03-12T16:05:16.602Z,24.42
2023-03-12T16:07:43.027Z,23.55
2023-03-12T16:10:16.839Z,23.42
2023-03-12T16:12:44.191Z,20.60
2023-03-12T16:15:18.970Z,18.98
2023-03-12T16:17:45.547Z,18.98
2023-03-12T16:20:13.550Z,17.60
2023-03-12T16:22:41.457Z,16.02
2023-03-12T16:25:10.648Z,18.80
2023-03-12T16:27:41.059Z,18.13
2023-03-12T16:30:14.519Z,23.00
2023-03-12T16:32:41.485Z,15.63
2023-03-12T16:35:17.552Z,17.02
2023-03-12T16:37:44.511Z,16.23
2023-03-12T16:40:11.866Z,14.02
2023-03-12T16:42:43.042Z,15.15
2023-03-12T16:45:10.984Z,14.45
2023-03-12T16:47:37.990Z,16.08
2023-03-12T16:50:09.758Z,18.52
2023-03-12T16:52:36.486Z,16.48
2023-03-12T16:55:03.579Z,15.95
2023-03-12T16:57:32.950Z,23.77
2023-03-12T17:00:01.340Z,22.70
2023-03-12T17:02:29.714Z,22.38
2023-03-12T17:04:56.646Z,21.15
2023-03-12T17:07:23.662Z,21.40
2023-03-12T17:09:50.216Z,26.60
2023-03-12T17:12:22.072Z,31.10
2023-03-12T17:14:49.635Z,22.98
2023-03-12T17:17:16.041Z,24.70
2023-03-12T17:19:43.846Z,27.35
2023-03-12T17:22:10.324Z,26.77
2023-03-12T17:24:37.045Z,22.63
2023-03-12T17:27:03.806Z,24.83
2023-03-12T17:29:30.527Z,18.77
2023-03-12T17:31:56.947Z,19.48
2023-03-12T17:34:23.363Z,16.83
2023-03-12T17:36:49.713Z,17.45
2023-03-12T17:39:16.296Z,22.25
2023-03-12T17:41:42.823Z,21.00
2023-03-12T17:44:10.402Z,25.23
2023-03-12T17:46:39.141Z,24.60
2023-03-12T17:49:07.108Z,20.15
2023-03-12T17:51:33.591Z,25.45
2023-03-12T17:54:00.100Z,23.83
2023-03-12T17:56:26.606Z,25.60
2023-03-12T17:58:52.926Z,22.58
2023-03-12T18:01:19.514Z,22.25
2023-03-12T18:03:46.262Z,19.25
2023-03-12T18:06:12.826Z,16.60
2023-03-12T18:08:39.438Z,21.92
2023-03-12T18:11:05.872Z,25.70
2023-03-12T18:13:32.328Z,23.85
2023-03-12T18:15:58.809Z,19.23
2023-03-12T18:18:26.128Z,19.52
2023-03-12T18:20:53.000Z,25.23
2023-03-12T18:23:20.549Z,23.75
2023-03-12T18:25:47.073Z,25.10
2023-03-12T18:28:15.357Z,23.95
2023-03-12T18:30:42.022Z,23.90
2023-03-12T18:33:08.650Z,19.48
2023-03-12T18:35:35.409Z,24.27
2023-03-12T18:38:02.165Z,24.50
2023-03-12T18:40:29.256Z,22.52
2023-03-12T18:42:59.671Z,20.98
2023-03-12T18:45:27.096Z,28.73
2023-03-12T18:47:53.531Z,20.88
2023-03-12T18:50:20.566Z,22.58
2023-03-12T18:52:47.508Z,20.48
2023-03-12T18:55:16.975Z,27.60
2023-03-12T18:57:44.293Z,19.60
2023-03-12T19:00:17.800Z,24.92
2023-03-12T19:02:46.520Z,27.40
2023-03-12T19:05:14.075Z,24.08
2023-03-12T19:07:40.594Z,27.30
2023-03-12T19:10:07.816Z,21.70
2023-03-12T19:12:45.443Z,24.42
2023-03-12T19:15:17.467Z,25.80
2023-03-12T19:17:43.860Z,27.23
2023-03-12T19:20:10.864Z,22.60
2023-03-12T19:22:37.221Z,21.77
2023-03-12T19:25:03.743Z,20.63
2023-03-12T19:27:30.248Z,23.33
2023-03-12T19:29:56.799Z,25.63
2023-03-12T19:32:25.321Z,23.48
2023-03-12T19:34:54.214Z,26.80
2023-03-12T19:37:22.274Z,21.63
2023-03-12T19:39:48.601Z,26.27
2023-03-12T19:42:15.022Z,21.02
2023-03-12T19:44:42.166Z,23.88
2023-03-12T19:47:09.133Z,24.50
2023-03-12T19:49:35.993Z,25.15
2023-03-12T19:52:02.999Z,27.88
2023-03-12T19:54:29.736Z,28.10
2023-03-12T19:56:56.257Z,32.55
2023-03-12T19:59:23.570Z,31.67
2023-03-12T20:01:50.022Z,31.10
2023-03-12T20:04:16.413Z,29.05
2023-03-12T20:06:42.911Z,30.20
2023-03-12T20:09:09.314Z,23.42
2023-03-12T20:11:35.932Z,31.10
2023-03-12T20:14:03.071Z,23.85
2023-03-12T20:16:29.535Z,27.67
2023-03-12T20:18:58.271Z,30.20
2023-03-12T20:21:24.808Z,24.75
2023-03-12T20:23:51.391Z,28.52
2023-03-12T20:26:18.217Z,30.92
2023-03-12T20:28:44.933Z,35.65
2023-03-12T20:31:12.896Z,41.13
2023-03-12T20:33:39.470Z,35.85
2023-03-12T20:36:10.279Z,39.67
2023-03-12T20:38:37.201Z,37.30
2023-03-12T20:41:03.949Z,35.90
2023-03-12T20:43:30.547Z,34.15
2023-03-12T20:45:57.640Z,33.65
2023-03-12T20:48:24.077Z,45.13
2023-03-12T20:50:51.532Z,35.90
2023-03-12T20:53:18.064Z,32.33
2023-03-12T20:55:44.603Z,33.30
2023-03-12T20:58:12.045Z,39.47
2023-03-12T21:00:38.802Z,41.40
2023-03-12T21:03:05.552Z,42.40
2023-03-12T21:05:32.150Z,46.72
2023-03-12T21:07:58.906Z,47.47
2023-03-12T21:10:25.807Z,44.42
2023-03-12T21:12:52.377Z,38.60
2023-03-12T21:15:19.027Z,44.55
2023-03-12T21:17:45.542Z,32.45
2023-03-12T21:20:17.236Z,32.50
2023-03-12T21:22:46.176Z,29.40
2023-03-12T21:25:13.552Z,28.85
2023-03-12T21:27:49.925Z,28.63
2023-03-12T21:30:17.932Z,24.92
2023-03-12T21:32:44.428Z,32.47
2023-03-12T21:35:11.264Z,22.23
2023-03-12T21:37:37.860Z,27.33
2023-03-12T21:40:05.115Z,30.13
2023-03-12T21:42:33.129Z,25.23
2023-03-12T21:44:59.575Z,32.60
2023-03-12T21:47:26.040Z,32.13
2023-03-12T21:49:52.609Z,28.98
2023-03-12T21:52:19.134Z,28.10
2023-03-12T21:54:45.701Z,29.85
2023-03-12T21:57:12.397Z,29.15
2023-03-12T21:59:38.814Z,27.27
2023-03-12T22:02:05.492Z,29.17
2023-03-12T22:04:32.361Z,27.77
2023-03-12T22:06:58.917Z,26.30
2023-03-12T22:09:25.334Z,30.52
2023-03-12T22:11:51.853Z,26.52
2023-03-12T22:14:18.494Z,27.75
2023-03-12T22:16:45.019Z,23.00
2023-03-12T22:19:11.551Z,21.52
2023-03-12T22:21:38.091Z,25.77
2023-03-12T22:24:04.680Z,24.65
2023-03-12T22:26:31.073Z,30.15
2023-03-12T22:28:58.100Z,27.40
2023-03-12T22:31:25.452Z,30.67
2023-03-12T22:33:52.052Z,30.35
2023-03-12T22:36:19.229Z,30.02
2023-03-12T22:38:47.852Z,35.47
2023-03-12T22:41:14.306Z,27.42
2023-03-12T22:43:41.019Z,28.33
2023-03-12T22:46:07.638Z,25.52
2023-03-12T22:48:34.255Z,29.10
2023-03-12T22:51:00.618Z,32.42
2023-03-12T22:53:26.947Z,31.40
2023-03-12T22:55:57.475Z,22.05
2023-03-12T22:58:24.697Z,25.55
2023-03-12T23:00:57.734Z,28.42
2023-03-12T23:03:24.658Z,24.75
2023-03-12T23:05:51.287Z,31.65
2023-03-12T23:08:18.441Z,29.50
2023-03-12T23:10:50.653Z,22.60
2023-03-12T23:13:17.132Z,26.33
2023-03-12T23:15:43.522Z,29.50
2023-03-12T23:18:10.045Z,21.30
2023-03-12T23:20:36.471Z,28.52
2023-03-12T23:23:03.377Z,29.83
2023-03-12T23:25:29.831Z,35.40
2023-03-12T23:27:58.411Z,25.25
2023-03-12T23:30:24.902Z,20.23
2023-03-12T23:32:51.504Z,28.48
2023-03-12T23:35:18.193Z,30.73
2023-03-12T23:37:44.621Z,22.63
2023-03-12T23:40:11.341Z,22.77
2023-03-12T23:42:37.921Z,26.48
2023-03-12T23:45:04.586Z,21.42
2023-03-12T23:47:30.990Z,21.83
2023-03-12T23:49:57.370Z,29.02
2023-03-12T23:52:26.012Z,24.95
2023-03-12T23:54:52.556Z,20.88
2023-03-12T23:57:19.106Z,25.40
2023-03-12T23:59:45.831Z,26.33
